Time;durP1;ratioP1;P1;durP2;ratioP2;P2;SDS_P1;SDS_P2;PMS_P1;PMS_P2;Temp;Humidity;BMP_temperature;BMP_pressure;BME280_temperature;BME280_humidity;BME280_pressure;Samples;Min_cycle;Max_cycle;Signal;HPM_P1;HPM_P2
2021/04/09 00:02:04;;;;;;;3.00;2.25;;;;;;;;;;5068212;28;20032;-58
2021/04/09 00:04:29;;;;;;;3.33;2.35;;;;;;;;;;5070301;28;20044;-58
2021/04/09 00:06:55;;;;;;;4.65;2.67;;;;;;;;;;5070318;28;20056;-58
2021/04/09 00:09:20;;;;;;;5.47;3.20;;;;;;;;;;5068588;28;20036;-59
2021/04/09 00:11:46;;;;;;;4.03;3.00;;;;;;;;;;5068808;28;20041;-59
2021/04/09 00:14:14;;;;;;;4.63;2.90;;;;;;;;;;5068906;28;20841;-59
2021/04/09 00:16:40;;;;;;;4.07;2.58;;;;;;;;;;5086658;28;20037;-59
2021/04/09 00:19:06;;;;;;;4.13;2.38;;;;;;;;;;5070480;28;20033;-59
2021/04/09 00:21:32;;;;;;;4.32;2.30;;;;;;;;;;5070863;28;20051;-59
2021/04/09 00:23:57;;;;;;;3.75;2.35;;;;;;;;;;5051382;28;20040;-59
2021/04/09 00:26:23;;;;;;;4.32;2.40;;;;;;;;;;5069331;28;20037;-59
2021/04/09 00:28:48;;;;;;;3.28;2.38;;;;;;;;;;5069893;28;20044;-58
2021/04/09 00:31:13;;;;;;;4.68;2.35;;;;;;;;;;5067041;28;20041;-59
2021/04/09 00:33:39;;;;;;;3.80;2.50;;;;;;;;;;5069203;28;20029;-59
2021/04/09 00:36:05;;;;;;;3.33;2.20;;;;;;;;;;5069533;28;20035;-59
2021/04/09 00:38:31;;;;;;;4.47;2.42;;;;;;;;;;5068502;28;20158;-58
2021/04/09 00:40:56;;;;;;;3.78;2.20;;;;;;;;;;5068969;28;20128;-59
2021/04/09 00:43:21;;;;;;;5.10;2.38;;;;;;;;;;5069571;28;20029;-59
2021/04/09 00:45:47;;;;;;;5.22;2.45;;;;;;;;;;5067357;28;20029;-58
2021/04/09 00:48:12;;;;;;;3.67;2.00;;;;;;;;;;5069364;28;20029;-58
2021/04/09 00:50:38;;;;;;;4.07;2.42;;;;;;;;;;5070698;28;20049;-58
2021/04/09 00:53:08;;;;;;;4.05;2.17;;;;;;;;;;5071878;28;20116;-59
2021/04/09 00:55:34;;;;;;;4.60;2.67;;;;;;;;;;5071523;28;20035;-58
2021/04/09 00:58:00;;;;;;;4.25;2.40;;;;;;;;;;5070101;28;20033;-59
2021/04/09 01:00:25;;;;;;;4.50;2.60;;;;;;;;;;5070361;28;20124;-58
2021/04/09 01:02:52;;;;;;;3.70;2.42;;;;;;;;;;5066811;28;20033;-58
2021/04/09 01:05:17;;;;;;;3.33;2.17;;;;;;;;;;5070660;28;20033;-59
2021/04/09 01:07:44;;;;;;;3.78;2.30;;;;;;;;;;5068374;28;20438;-58
2021/04/09 01:10:10;;;;;;;2.90;2.38;;;;;;;;;;5069008;28;20029;-59
2021/04/09 01:12:36;;;;;;;4.10;2.40;;;;;;;;;;5067181;28;20059;-59
2021/04/09 01:15:01;;;;;;;4.18;2.10;;;;;;;;;;5066215;28;20041;-58
2021/04/09 01:17:31;;;;;;;3.83;2.50;;;;;;;;;;5038347;28;20119;-58
2021/04/09 01:20:28;;;;;;;3.50;2.28;;;;;;;;;;5054231;28;20098;-58
2021/04/09 01:23:02;;;;;;;3.40;2.17;;;;;;;;;;5069416;28;20537;-59
2021/04/09 01:26:00;;;;;;;3.13;2.42;;;;;;;;;;5050586;28;20607;-58
2021/04/09 01:28:46;;;;;;;3.60;2.35;;;;;;;;;;5056069;28;20060;-58
2021/04/09 01:31:43;;;;;;;4.20;2.38;;;;;;;;;;5066711;28;20507;-58
2021/04/09 01:34:08;;;;;;;3.63;2.30;;;;;;;;;;5065739;28;20037;-58
2021/04/09 01:36:57;;;;;;;3.95;2.30;;;;;;;;;;5049995;28;20394;-58
2021/04/09 01:39:35;;;;;;;3.15;2.28;;;;;;;;;;5068479;28;20355;-58
2021/04/09 01:42:02;;;;;;;3.60;2.30;;;;;;;;;;5070163;28;20040;-58
2021/04/09 01:44:27;;;;;;;3.78;2.20;;;;;;;;;;5036749;28;20017;-58
2021/04/09 01:46:54;;;;;;;3.85;2.30;;;;;;;;;;5037077;28;20032;-58
2021/04/09 01:49:19;;;;;;;3.53;2.28;;;;;;;;;;5067526;28;20029;-58
2021/04/09 01:51:45;;;;;;;3.03;2.05;;;;;;;;;;5070353;28;20128;-58
2021/04/09 01:54:10;;;;;;;4.93;2.65;;;;;;;;;;5053575;28;20025;-58
2021/04/09 01:56:36;;;;;;;4.95;2.30;;;;;;;;;;5069751;28;20494;-58
2021/04/09 01:59:01;;;;;;;3.58;2.67;;;;;;;;;;5069332;28;20032;-58
2021/04/09 02:01:27;;;;;;;4.75;2.22;;;;;;;;;;5051748;28;20043;-58
2021/04/09 02:03:52;;;;;;;3.80;2.22;;;;;;;;;;5050264;28;20033;-58
2021/04/09 02:06:18;;;;;;;4.45;2.17;;;;;;;;;;5050788;28;20095;-58
2021/04/09 02:08:44;;;;;;;3.67;2.30;;;;;;;;;;5033372;28;20037;-58
2021/04/09 02:11:09;;;;;;;4.18;2.38;;;;;;;;;;5038565;28;20489;-58
2021/04/09 02:13:34;;;;;;;3.40;2.13;;;;;;;;;;5052263;28;20037;-58
2021/04/09 02:16:00;;;;;;;3.45;2.10;;;;;;;;;;5066914;28;20037;-58
2021/04/09 02:18:26;;;;;;;3.95;2.30;;;;;;;;;;5064955;28;20037;-58
2021/04/09 02:20:52;;;;;;;3.25;2.13;;;;;;;;;;5064790;28;20581;-58
2021/04/09 02:23:17;;;;;;;4.55;2.35;;;;;;;;;;5063482;28;20036;-58
2021/04/09 02:25:43;;;;;;;4.03;2.30;;;;;;;;;;5067508;28;20068;-58
2021/04/09 02:28:08;;;;;;;3.30;2.35;;;;;;;;;;5069051;28;20037;-58
2021/04/09 02:30:34;;;;;;;4.78;2.20;;;;;;;;;;5067985;28;20041;-58
2021/04/09 02:32:59;;;;;;;4.78;2.60;;;;;;;;;;5068446;28;20812;-59
2021/04/09 02:35:25;;;;;;;3.67;2.17;;;;;;;;;;5065433;28;20040;-58
2021/04/09 02:37:50;;;;;;;3.20;1.90;;;;;;;;;;5078201;28;20590;-58
2021/04/09 02:40:20;;;;;;;3.40;2.20;;;;;;;;;;5064949;28;20029;-58
2021/04/09 02:42:48;;;;;;;3.70;2.20;;;;;;;;;;5061953;28;20037;-58
2021/04/09 02:45:14;;;;;;;3.80;2.10;;;;;;;;;;5037931;28;20533;-58
2021/04/09 02:47:40;;;;;;;3.13;2.03;;;;;;;;;;5050481;28;20079;-58
2021/04/09 02:50:19;;;;;;;2.83;1.88;;;;;;;;;;5064161;28;20045;-59
2021/04/09 02:52:58;;;;;;;2.58;1.80;;;;;;;;;;5068798;28;20029;-58
2021/04/09 02:55:30;;;;;;;3.67;2.10;;;;;;;;;;5056383;28;20033;-58
2021/04/09 02:57:56;;;;;;;2.28;1.83;;;;;;;;;;5056009;28;20032;-59
2021/04/09 03:00:21;;;;;;;3.05;2.00;;;;;;;;;;5052083;28;20021;-58
2021/04/09 03:02:47;;;;;;;3.33;1.88;;;;;;;;;;5067134;28;20497;-58
2021/04/09 03:05:13;;;;;;;4.35;1.98;;;;;;;;;;5070490;28;20032;-58
2021/04/09 03:07:39;;;;;;;3.05;1.88;;;;;;;;;;5054741;28;20037;-58
2021/04/09 03:10:07;;;;;;;3.13;2.17;;;;;;;;;;5070316;28;20885;-57
2021/04/09 03:12:32;;;;;;;3.97;2.15;;;;;;;;;;5073031;28;20032;-58
2021/04/09 03:14:58;;;;;;;2.63;1.77;;;;;;;;;;5069043;28;20494;-58
2021/04/09 03:17:47;;;;;;;3.90;2.10;;;;;;;;;;5069557;28;20032;-58
2021/04/09 03:20:13;;;;;;;4.90;2.42;;;;;;;;;;5067700;28;20115;-58
2021/04/09 03:22:38;;;;;;;4.38;2.10;;;;;;;;;;5069488;28;20028;-58
2021/04/09 03:25:04;;;;;;;3.50;2.00;;;;;;;;;;5068414;28;20055;-58
2021/04/09 03:27:30;;;;;;;4.65;2.10;;;;;;;;;;5067464;28;20057;-58
2021/04/09 03:29:55;;;;;;;3.55;2.03;;;;;;;;;;5069016;28;20068;-58
2021/04/09 03:32:21;;;;;;;3.28;2.10;;;;;;;;;;5069955;28;20036;-58
2021/04/09 03:34:46;;;;;;;3.40;1.90;;;;;;;;;;5067551;28;20040;-58
2021/04/09 03:37:12;;;;;;;4.35;1.95;;;;;;;;;;5066030;28;20439;-58
2021/04/09 03:39:37;;;;;;;3.20;2.10;;;;;;;;;;5069822;28;20021;-58
2021/04/09 03:42:03;;;;;;;4.00;2.28;;;;;;;;;;5069068;28;20550;-59
2021/04/09 03:44:29;;;;;;;3.25;2.03;;;;;;;;;;5051241;28;20656;-58
2021/04/09 03:46:54;;;;;;;4.70;2.45;;;;;;;;;;5070982;28;20045;-58
2021/04/09 03:49:20;;;;;;;3.70;2.40;;;;;;;;;;5070080;28;20484;-58
2021/04/09 03:51:45;;;;;;;3.50;2.30;;;;;;;;;;5068936;28;20040;-58
2021/04/09 03:54:12;;;;;;;4.10;2.30;;;;;;;;;;5070921;28;20177;-59
2021/04/09 03:56:37;;;;;;;3.55;2.35;;;;;;;;;;5085618;28;20036;-58
2021/04/09 03:59:03;;;;;;;3.22;2.13;;;;;;;;;;5068929;28;20051;-58
2021/04/09 04:01:28;;;;;;;2.50;1.90;;;;;;;;;;5052140;28;20043;-58
2021/04/09 04:03:54;;;;;;;5.05;2.08;;;;;;;;;;5070353;28;20406;-58
2021/04/09 04:06:19;;;;;;;3.13;2.03;;;;;;;;;;5069809;28;20743;-58
2021/04/09 04:08:45;;;;;;;4.22;2.17;;;;;;;;;;5071225;28;20031;-58
2021/04/09 04:11:10;;;;;;;2.83;2.10;;;;;;;;;;5068300;28;20079;-58
2021/04/09 04:13:36;;;;;;;3.40;2.10;;;;;;;;;;5069676;28;20483;-58
2021/04/09 04:16:01;;;;;;;4.65;2.40;;;;;;;;;;5070327;28;20030;-58
2021/04/09 04:18:27;;;;;;;4.05;2.20;;;;;;;;;;5072839;28;20017;-58
2021/04/09 04:20:52;;;;;;;3.35;2.08;;;;;;;;;;5068357;28;20422;-58
2021/04/09 04:23:18;;;;;;;4.20;2.20;;;;;;;;;;5069003;28;20082;-58
2021/04/09 04:25:43;;;;;;;3.28;2.22;;;;;;;;;;5067763;28;20029;-58
2021/04/09 04:28:09;;;;;;;4.07;2.35;;;;;;;;;;5067976;28;20545;-59
2021/04/09 04:30:35;;;;;;;3.55;2.20;;;;;;;;;;5069630;28;20482;-59
2021/04/09 04:33:00;;;;;;;3.65;2.28;;;;;;;;;;5069125;28;20022;-59
2021/04/09 04:35:26;;;;;;;4.30;2.20;;;;;;;;;;5071981;28;20037;-59
2021/04/09 04:37:51;;;;;;;3.08;2.10;;;;;;;;;;5068834;28;20044;-58
2021/04/09 04:40:17;;;;;;;3.90;2.30;;;;;;;;;;5068510;28;20116;-59
2021/04/09 04:42:42;;;;;;;4.10;2.30;;;;;;;;;;5070670;28;20068;-59
2021/04/09 04:45:08;;;;;;;3.38;2.10;;;;;;;;;;5069815;28;20033;-58
2021/04/09 04:47:34;;;;;;;4.13;2.28;;;;;;;;;;5066061;28;20042;-59
2021/04/09 04:49:59;;;;;;;3.42;2.30;;;;;;;;;;5039581;22;20072;-58
2021/04/09 04:52:25;;;;;;;3.00;2.15;;;;;;;;;;5038149;28;20053;-59
2021/04/09 04:54:50;;;;;;;3.40;2.33;;;;;;;;;;5052981;28;20041;-58
2021/04/09 04:57:16;;;;;;;4.15;2.08;;;;;;;;;;5038871;28;20489;-59
2021/04/09 04:59:41;;;;;;;4.90;2.58;;;;;;;;;;5049967;28;20340;-59
2021/04/09 05:02:07;;;;;;;3.65;2.42;;;;;;;;;;5023593;28;20038;-58
2021/04/09 05:04:32;;;;;;;4.68;2.60;;;;;;;;;;5018979;28;20627;-59
2021/04/09 05:06:58;;;;;;;3.95;2.38;;;;;;;;;;5032930;28;20058;-58
2021/04/09 05:09:23;;;;;;;5.00;2.30;;;;;;;;;;5016829;28;20034;-58
2021/04/09 05:11:49;;;;;;;3.63;2.33;;;;;;;;;;5017084;28;20112;-58
2021/04/09 05:14:14;;;;;;;3.72;2.25;;;;;;;;;;5017538;28;20099;-58
2021/04/09 05:16:39;;;;;;;4.43;2.40;;;;;;;;;;5034020;28;20044;-58
2021/04/09 05:19:05;;;;;;;4.75;2.55;;;;;;;;;;5031962;28;20054;-58
2021/04/09 05:21:31;;;;;;;4.25;2.55;;;;;;;;;;5017064;28;20030;-58
2021/04/09 05:23:56;;;;;;;5.78;2.35;;;;;;;;;;5020123;28;20516;-59
2021/04/09 05:26:22;;;;;;;4.22;2.28;;;;;;;;;;5018132;28;20040;-59
2021/04/09 05:28:47;;;;;;;4.47;2.42;;;;;;;;;;5015842;28;20554;-59
2021/04/09 05:31:13;;;;;;;4.28;2.53;;;;;;;;;;5016161;28;20820;-58
2021/04/09 05:33:38;;;;;;;4.38;2.72;;;;;;;;;;5015020;28;20427;-59
2021/04/09 05:36:04;;;;;;;3.95;2.28;;;;;;;;;;5020956;28;20046;-58
2021/04/09 05:38:29;;;;;;;4.15;2.53;;;;;;;;;;5016731;28;20042;-58
2021/04/09 05:40:55;;;;;;;5.85;2.78;;;;;;;;;;5017134;28;20041;-58
2021/04/09 05:43:21;;;;;;;4.82;2.55;;;;;;;;;;5021979;28;20523;-59
2021/04/09 05:45:46;;;;;;;7.25;2.90;;;;;;;;;;5017128;28;20026;-59
2021/04/09 05:48:12;;;;;;;4.88;2.78;;;;;;;;;;5015478;28;20268;-58
2021/04/09 05:50:37;;;;;;;4.70;2.75;;;;;;;;;;5030114;28;20042;-59
2021/04/09 05:53:03;;;;;;;5.15;2.67;;;;;;;;;;5030680;28;20050;-58
2021/04/09 05:55:28;;;;;;;4.30;2.58;;;;;;;;;;5032769;28;20041;-58
2021/04/09 05:57:54;;;;;;;5.10;2.70;;;;;;;;;;5016284;28;20559;-58
2021/04/09 06:00:20;;;;;;;4.45;2.47;;;;;;;;;;5016877;28;20044;-58
2021/04/09 06:02:45;;;;;;;3.60;2.38;;;;;;;;;;5037334;28;20034;-58
2021/04/09 06:05:11;;;;;;;4.45;2.58;;;;;;;;;;5015652;28;20069;-59
2021/04/09 06:07:37;;;;;;;4.10;2.58;;;;;;;;;;5033156;28;20044;-59
2021/04/09 06:10:04;;;;;;;4.22;2.47;;;;;;;;;;5015085;28;20021;-59
2021/04/09 06:12:29;;;;;;;5.07;2.58;;;;;;;;;;5013894;28;20051;-59
2021/04/09 06:14:55;;;;;;;4.03;2.60;;;;;;;;;;5015772;28;20030;-59
2021/04/09 06:17:20;;;;;;;3.75;2.70;;;;;;;;;;5021500;28;20039;-59
2021/04/09 06:19:48;;;;;;;4.47;2.60;;;;;;;;;;5014098;28;20088;-59
2021/04/09 06:22:15;;;;;;;4.65;2.67;;;;;;;;;;5022250;28;20034;-58
2021/04/09 06:24:40;;;;;;;4.13;2.40;;;;;;;;;;5016572;28;20101;-59
2021/04/09 06:27:06;;;;;;;5.00;2.63;;;;;;;;;;5020258;28;20749;-59
2021/04/09 06:29:32;;;;;;;4.32;2.55;;;;;;;;;;5017186;28;20040;-59
2021/04/09 06:31:57;;;;;;;6.20;2.80;;;;;;;;;;5017154;28;20053;-59
2021/04/09 06:34:23;;;;;;;5.38;2.60;;;;;;;;;;5049830;28;20026;-59
2021/04/09 06:36:48;;;;;;;4.97;2.50;;;;;;;;;;5031833;28;20034;-59
2021/04/09 06:39:14;;;;;;;4.43;2.70;;;;;;;;;;5016311;28;20046;-58
2021/04/09 06:41:39;;;;;;;4.63;2.50;;;;;;;;;;5033024;28;20076;-59
2021/04/09 06:44:05;;;;;;;4.75;2.58;;;;;;;;;;5014414;28;20042;-58
2021/04/09 06:46:33;;;;;;;4.70;2.65;;;;;;;;;;5031185;28;20045;-58
2021/04/09 06:48:58;;;;;;;3.80;2.30;;;;;;;;;;5015378;28;20803;-59
2021/04/09 06:51:23;;;;;;;3.42;2.03;;;;;;;;;;5017460;28;20045;-59
2021/04/09 06:53:49;;;;;;;6.18;2.80;;;;;;;;;;5016700;28;20034;-58
2021/04/09 06:56:18;;;;;;;3.20;2.17;;;;;;;;;;5029470;28;20034;-59
2021/04/09 06:58:45;;;;;;;4.25;2.63;;;;;;;;;;5022511;28;20042;-58
2021/04/09 07:01:11;;;;;;;3.67;2.22;;;;;;;;;;5030681;28;20185;-59
2021/04/09 07:03:37;;;;;;;4.15;2.30;;;;;;;;;;5015353;28;20041;-59
2021/04/09 07:06:03;;;;;;;5.97;2.50;;;;;;;;;;5021386;28;20040;-58
2021/04/09 07:08:29;;;;;;;5.15;2.95;;;;;;;;;;5016448;28;20037;-59
2021/04/09 07:10:55;;;;;;;4.03;2.40;;;;;;;;;;5037403;28;20102;-59
2021/04/09 07:13:20;;;;;;;4.53;2.63;;;;;;;;;;5031599;28;20048;-58
2021/04/09 07:15:46;;;;;;;3.95;2.28;;;;;;;;;;5021195;28;20377;-59
2021/04/09 07:18:13;;;;;;;4.63;2.60;;;;;;;;;;5030764;28;20125;-58
2021/04/09 07:20:39;;;;;;;5.82;2.30;;;;;;;;;;5015806;28;20041;-58
2021/04/09 07:23:06;;;;;;;3.70;2.35;;;;;;;;;;5030409;28;20582;-59
2021/04/09 07:25:39;;;;;;;3.75;2.40;;;;;;;;;;5004776;28;20065;-58
2021/04/09 07:28:15;;;;;;;3.72;2.30;;;;;;;;;;5029820;28;20030;-58
2021/04/09 07:30:49;;;;;;;5.43;2.50;;;;;;;;;;5030423;28;20511;-59
2021/04/09 07:33:15;;;;;;;4.82;2.40;;;;;;;;;;5021395;28;20041;-58
2021/04/09 07:35:47;;;;;;;6.35;3.20;;;;;;;;;;5016260;28;20037;-59
2021/04/09 07:38:25;;;;;;;;;;;;;;;;;;5031604;28;20156;-58
2021/04/09 07:40:56;;;;;;;4.30;2.35;;;;;;;;;;5017970;28;19979;-58
2021/04/09 07:43:21;;;;;;;5.60;3.10;;;;;;;;;;5034239;28;20037;-58
2021/04/09 07:45:47;;;;;;;4.78;2.60;;;;;;;;;;5020771;28;20065;-58
2021/04/09 07:48:12;;;;;;;4.45;2.63;;;;;;;;;;5018646;28;20084;-59
2021/04/09 07:50:42;;;;;;;5.38;2.50;;;;;;;;;;5025268;28;20115;-59
2021/04/09 07:53:31;;;;;;;5.50;2.83;;;;;;;;;;5036279;28;20038;-58
2021/04/09 07:56:06;;;;;;;4.90;3.15;;;;;;;;;;5017680;28;20044;-58
2021/04/09 07:58:33;;;;;;;4.07;2.30;;;;;;;;;;5019986;28;20037;-58
2021/04/09 08:00:59;;;;;;;3.90;2.65;;;;;;;;;;5031740;28;20040;-58
2021/04/09 08:03:33;;;;;;;5.30;2.75;;;;;;;;;;5019193;28;20033;-58
2021/04/09 08:06:08;;;;;;;4.85;2.58;;;;;;;;;;5017502;28;20807;-58
2021/04/09 08:08:33;;;;;;;4.93;2.60;;;;;;;;;;5031966;28;20046;-58
2021/04/09 08:11:20;;;;;;;4.68;2.55;;;;;;;;;;5038067;28;20088;-58
2021/04/09 08:13:58;;;;;;;4.70;2.60;;;;;;;;;;5031153;28;20924;-58
2021/04/09 08:16:34;;;;;;;4.20;2.28;;;;;;;;;;5031034;28;20668;-58
2021/04/09 08:19:03;;;;;;;3.97;2.15;;;;;;;;;;5015828;28;20088;-58
2021/04/09 08:21:29;;;;;;;3.83;2.30;;;;;;;;;;5030887;28;20033;-58
2021/04/09 08:23:55;;;;;;;4.95;2.42;;;;;;;;;;5016789;28;20500;-57
2021/04/09 08:26:20;;;;;;;3.88;2.40;;;;;;;;;;5032500;28;20042;-58
2021/04/09 08:28:46;;;;;;;4.50;2.45;;;;;;;;;;5017961;28;20037;-58
2021/04/09 08:31:12;;;;;;;4.20;2.40;;;;;;;;;;5008719;28;20867;-58
2021/04/09 08:33:37;;;;;;;5.03;2.33;;;;;;;;;;5030991;28;20042;-58
2021/04/09 08:36:04;;;;;;;5.18;2.50;;;;;;;;;;5023427;28;20438;-58
2021/04/09 08:38:29;;;;;;;3.80;2.13;;;;;;;;;;5033509;28;20042;-57
2021/04/09 08:40:55;;;;;;;3.90;2.40;;;;;;;;;;5020397;28;20035;-57
2021/04/09 08:43:20;;;;;;;4.60;2.22;;;;;;;;;;5026244;28;20033;-58
2021/04/09 08:45:46;;;;;;;5.05;2.90;;;;;;;;;;5032271;28;20067;-58
2021/04/09 08:48:12;;;;;;;4.60;2.55;;;;;;;;;;5017288;28;20477;-58
2021/04/09 08:50:37;;;;;;;6.20;3.28;;;;;;;;;;5021861;28;20085;-58
2021/04/09 08:53:03;;;;;;;4.70;2.20;;;;;;;;;;5031569;28;20508;-57
2021/04/09 08:55:38;;;;;;;4.63;2.20;;;;;;;;;;5032461;28;20026;-57
2021/04/09 08:58:17;;;;;;;3.38;2.10;;;;;;;;;;5017117;28;20117;-58
2021/04/09 09:00:45;;;;;;;4.70;2.20;;;;;;;;;;5031028;28;20904;-58
2021/04/09 09:03:29;;;;;;;4.55;2.25;;;;;;;;;;5020524;28;20041;-58
2021/04/09 09:06:00;;;;;;;3.50;1.95;;;;;;;;;;5017155;28;20077;-58
2021/04/09 09:08:41;;;;;;;4.63;2.63;;;;;;;;;;5032239;28;20043;-57
2021/04/09 09:11:07;;;;;;;3.88;2.33;;;;;;;;;;5017659;28;20158;-57
2021/04/09 09:13:39;;;;;;;4.72;2.33;;;;;;;;;;5016063;28;20022;-57
2021/04/09 09:16:18;;;;;;;4.68;1.80;;;;;;;;;;5046270;28;20038;-58
2021/04/09 09:18:45;;;;;;;5.15;1.80;;;;;;;;;;5020131;28;20038;-58
2021/04/09 09:21:13;;;;;;;4.00;2.20;;;;;;;;;;5016442;28;20937;-57
2021/04/09 09:24:09;;;;;;;4.72;2.08;;;;;;;;;;5016880;28;20041;-57
2021/04/09 09:26:38;;;;;;;4.82;1.95;;;;;;;;;;5013266;28;20049;-58
2021/04/09 09:29:11;;;;;;;3.75;2.28;;;;;;;;;;5021628;28;20041;-58
2021/04/09 09:31:41;;;;;;;3.58;2.00;;;;;;;;;;5032014;28;20052;-58
2021/04/09 09:34:23;;;;;;;3.70;1.95;;;;;;;;;;5030712;28;20121;-58
2021/04/09 09:37:00;;;;;;;;;;;;;;;;;;5017718;28;20060;-58
2021/04/09 09:39:36;;;;;;;4.22;2.00;;;;;;;;;;5017830;28;19928;-58
2021/04/09 09:42:17;;;;;;;3.63;1.90;;;;;;;;;;5017869;28;20045;-58
2021/04/09 09:44:43;;;;;;;4.43;1.98;;;;;;;;;;5030576;28;20052;-58
2021/04/09 09:47:32;;;;;;;3.85;2.10;;;;;;;;;;5032663;28;20041;-58
2021/04/09 09:52:44;;;;;;;3.05;1.90;;;;;;;;;;5032121;28;20046;-57
2021/04/09 09:55:10;;;;;;;4.68;2.08;;;;;;;;;;5016233;28;20065;-58
2021/04/09 09:57:50;;;;;;;3.05;1.92;;;;;;;;;;5014461;28;20101;-57
2021/04/09 10:00:36;;;;;;;4.55;1.98;;;;;;;;;;5036809;28;20839;-57
2021/04/09 10:03:18;;;;;;;3.60;2.03;;;;;;;;;;5031381;28;20415;-57
2021/04/09 10:05:46;;;;;;;5.13;2.88;;;;;;;;;;5021061;28;20030;-61
2021/04/09 10:08:12;;;;;;;3.58;2.65;;;;;;;;;;5014599;28;20044;-60
2021/04/09 10:10:42;;;;;;;4.20;2.45;;;;;;;;;;5029035;28;20884;-59
2021/04/09 10:13:16;;;;;;;3.17;1.80;;;;;;;;;;5036625;28;20029;-58
2021/04/09 10:15:42;;;;;;;3.42;1.80;;;;;;;;;;5013900;28;20042;-61
2021/04/09 10:18:08;;;;;;;3.13;1.63;;;;;;;;;;5039746;22;20030;-57
2021/04/09 10:20:33;;;;;;;3.00;1.98;;;;;;;;;;5019319;28;20487;-58
2021/04/09 10:22:59;;;;;;;3.25;1.83;;;;;;;;;;5038646;28;20116;-57
2021/04/09 10:25:28;;;;;;;2.72;1.83;;;;;;;;;;5027127;28;20038;-58
2021/04/09 10:27:54;;;;;;;5.10;3.00;;;;;;;;;;5022050;28;20100;-58
2021/04/09 10:30:32;;;;;;;5.55;3.40;;;;;;;;;;5004312;28;20060;-58
2021/04/09 10:32:58;;;;;;;7.03;3.50;;;;;;;;;;5006668;28;20030;-62
2021/04/09 10:35:24;;;;;;;4.57;2.35;;;;;;;;;;5004275;28;20499;-61
2021/04/09 10:37:49;;;;;;;3.10;1.77;;;;;;;;;;5004323;28;20607;-60
2021/04/09 10:40:15;;;;;;;3.15;2.05;;;;;;;;;;5018477;28;20058;-60
2021/04/09 10:42:41;;;;;;;4.78;2.20;;;;;;;;;;5003469;28;20034;-60
2021/04/09 10:45:18;;;;;;;3.35;2.10;;;;;;;;;;4986260;28;20041;-60
2021/04/09 10:47:44;;;;;;;2.88;1.73;;;;;;;;;;5003782;28;20037;-60
2021/04/09 10:50:10;;;;;;;2.85;1.77;;;;;;;;;;5002357;28;20027;-57
2021/04/09 10:52:35;;;;;;;3.85;2.20;;;;;;;;;;5002938;28;20062;-58
2021/04/09 10:55:02;;;;;;;3.33;2.15;;;;;;;;;;5004384;28;20041;-58
2021/04/09 10:57:27;;;;;;;3.47;2.03;;;;;;;;;;5003179;28;20041;-58
2021/04/09 10:59:54;;;;;;;4.88;1.90;;;;;;;;;;5004296;28;20396;-57
2021/04/09 11:02:24;;;;;;;2.83;1.90;;;;;;;;;;4991875;28;20031;-58
2021/04/09 11:04:51;;;;;;;3.70;2.05;;;;;;;;;;5003251;28;20038;-58
2021/04/09 11:07:16;;;;;;;3.25;2.03;;;;;;;;;;5004436;28;20117;-58
2021/04/09 11:09:47;;;;;;;3.53;1.98;;;;;;;;;;5004291;28;20080;-58
2021/04/09 11:12:16;;;;;;;4.07;2.22;;;;;;;;;;5003644;28;20150;-58
2021/04/09 11:14:42;;;;;;;3.28;1.92;;;;;;;;;;5008400;28;20121;-58
2021/04/09 11:17:07;;;;;;;2.60;1.80;;;;;;;;;;4990490;28;20034;-57
2021/04/09 11:19:35;;;;;;;2.65;1.60;;;;;;;;;;5008906;28;20045;-57
2021/04/09 11:22:15;;;;;;;2.33;1.60;;;;;;;;;;4990540;28;20034;-58
2021/04/09 11:24:40;;;;;;;3.00;1.90;;;;;;;;;;5006597;28;20787;-58
2021/04/09 11:27:20;;;;;;;4.63;2.20;;;;;;;;;;5005437;28;20026;-58
2021/04/09 11:29:45;;;;;;;2.45;1.63;;;;;;;;;;5007228;28;20555;-57
2021/04/09 11:32:14;;;;;;;2.63;1.55;;;;;;;;;;5022614;28;20046;-58
2021/04/09 11:34:43;;;;;;;1.90;1.45;;;;;;;;;;5006979;28;20034;-58
2021/04/09 11:37:10;;;;;;;2.88;1.55;;;;;;;;;;4989734;28;20041;-58
2021/04/09 11:39:50;;;;;;;1.73;1.50;;;;;;;;;;4989244;28;20562;-58
2021/04/09 11:42:27;;;;;;;2.55;1.63;;;;;;;;;;5005385;28;20047;-57
2021/04/09 11:44:53;;;;;;;2.70;1.75;;;;;;;;;;5022019;28;20040;-57
2021/04/09 11:47:28;;;;;;;3.22;2.25;;;;;;;;;;5006459;28;20033;-57
2021/04/09 11:50:02;;;;;;;2.35;1.55;;;;;;;;;;5008246;28;20042;-57
2021/04/09 11:52:28;;;;;;;2.53;1.67;;;;;;;;;;5008154;28;20865;-58
2021/04/09 11:54:53;;;;;;;3.30;1.67;;;;;;;;;;5005769;28;20041;-57
2021/04/09 11:57:26;;;;;;;2.03;1.73;;;;;;;;;;5006113;28;20635;-56
2021/04/09 11:59:52;;;;;;;2.40;1.40;;;;;;;;;;5004784;28;20276;-56
2021/04/09 12:02:22;;;;;;;3.00;1.40;;;;;;;;;;5005493;28;20145;-56
2021/04/09 12:04:48;;;;;;;2.97;1.60;;;;;;;;;;5007080;28;20034;-57
2021/04/09 12:07:18;;;;;;;1.88;1.45;;;;;;;;;;4992431;28;20034;-57
2021/04/09 12:09:45;;;;;;;2.45;1.63;;;;;;;;;;5006503;28;20121;-56
2021/04/09 12:12:11;;;;;;;3.17;1.60;;;;;;;;;;5007471;28;20638;-57
2021/04/09 12:14:39;;;;;;;3.33;1.88;;;;;;;;;;4991958;28;20070;-56
2021/04/09 12:17:04;;;;;;;3.08;1.77;;;;;;;;;;4989230;28;20038;-57
2021/04/09 12:19:30;;;;;;;2.78;1.60;;;;;;;;;;5020314;28;20042;-56
2021/04/09 12:21:56;;;;;;;2.35;1.50;;;;;;;;;;5006749;28;20031;-56
2021/04/09 12:24:21;;;;;;;2.80;1.60;;;;;;;;;;5007524;28;20053;-57
2021/04/09 12:26:47;;;;;;;2.63;1.60;;;;;;;;;;5005204;28;20033;-56
2021/04/09 12:29:12;;;;;;;3.47;1.65;;;;;;;;;;5005198;28;20041;-57
2021/04/09 12:31:38;;;;;;;2.65;1.80;;;;;;;;;;5005938;28;20636;-57
2021/04/09 12:34:03;;;;;;;2.67;1.85;;;;;;;;;;5005355;28;20030;-57
2021/04/09 12:36:29;;;;;;;2.22;1.60;;;;;;;;;;4999084;28;20038;-56
2021/04/09 12:38:54;;;;;;;3.67;1.80;;;;;;;;;;5005801;28;20046;-56
2021/04/09 12:41:20;;;;;;;2.65;1.85;;;;;;;;;;5004883;28;20551;-56
2021/04/09 12:43:45;;;;;;;2.75;1.80;;;;;;;;;;5006331;28;20045;-56
2021/04/09 12:46:11;;;;;;;3.72;2.17;;;;;;;;;;5005015;28;20042;-57
2021/04/09 12:48:36;;;;;;;2.85;1.95;;;;;;;;;;5005934;28;20044;-57
2021/04/09 12:51:02;;;;;;;4.22;2.30;;;;;;;;;;5005233;28;20520;-55
2021/04/09 12:53:27;;;;;;;3.10;1.90;;;;;;;;;;5002742;28;20036;-57
2021/04/09 12:55:53;;;;;;;2.58;1.90;;;;;;;;;;5006435;28;20047;-56
2021/04/09 12:58:18;;;;;;;3.38;2.10;;;;;;;;;;5021905;28;20041;-57
2021/04/09 13:00:44;;;;;;;4.80;2.10;;;;;;;;;;5006430;28;20533;-57
2021/04/09 13:03:10;;;;;;;4.03;2.15;;;;;;;;;;5006478;28;20030;-57
2021/04/09 13:05:35;;;;;;;2.97;2.00;;;;;;;;;;5004435;28;20061;-58
2021/04/09 13:08:01;;;;;;;3.47;2.03;;;;;;;;;;5005286;28;20038;-59
2021/04/09 13:10:26;;;;;;;4.88;2.03;;;;;;;;;;5020363;28;20482;-58
2021/04/09 13:12:52;;;;;;;3.10;2.10;;;;;;;;;;5003750;28;20034;-59
2021/04/09 13:15:17;;;;;;;2.53;1.67;;;;;;;;;;5006201;28;20097;-58
2021/04/09 13:17:43;;;;;;;3.15;1.90;;;;;;;;;;5005705;28;20039;-59
2021/04/09 13:20:08;;;;;;;3.70;2.30;;;;;;;;;;5006084;28;20035;-59
2021/04/09 13:22:34;;;;;;;3.10;1.85;;;;;;;;;;5005639;28;20113;-57
2021/04/09 13:24:59;;;;;;;3.67;1.92;;;;;;;;;;5007881;28;20038;-59
2021/04/09 13:27:25;;;;;;;3.13;2.00;;;;;;;;;;5005658;28;20046;-58
2021/04/09 13:29:50;;;;;;;2.45;1.88;;;;;;;;;;5005824;28;20527;-58
2021/04/09 13:32:16;;;;;;;4.13;2.50;;;;;;;;;;5005441;28;20034;-59
2021/04/09 13:34:42;;;;;;;2.70;1.90;;;;;;;;;;4981747;28;20042;-58
2021/04/09 13:37:07;;;;;;;2.45;1.88;;;;;;;;;;5004417;28;20034;-59
2021/04/09 13:39:33;;;;;;;2.90;1.80;;;;;;;;;;5004457;28;20081;-59
2021/04/09 13:41:59;;;;;;;3.97;2.13;;;;;;;;;;5003582;28;20056;-58
2021/04/09 13:44:24;;;;;;;4.20;2.13;;;;;;;;;;5005680;28;20030;-59
2021/04/09 13:46:50;;;;;;;2.30;1.50;;;;;;;;;;5004736;28;20038;-58
2021/04/09 13:49:16;;;;;;;2.97;1.95;;;;;;;;;;5005622;28;20037;-57
2021/04/09 13:51:41;;;;;;;2.80;1.70;;;;;;;;;;5003864;28;20093;-57
2021/04/09 13:54:07;;;;;;;3.20;2.00;;;;;;;;;;5004806;28;20034;-57
2021/04/09 13:56:32;;;;;;;4.10;2.20;;;;;;;;;;5005589;28;20042;-57
2021/04/09 13:58:58;;;;;;;2.50;1.90;;;;;;;;;;5004408;28;20038;-57
2021/04/09 14:01:23;;;;;;;2.88;1.85;;;;;;;;;;5007244;28;20085;-57
2021/04/09 14:03:49;;;;;;;3.53;2.08;;;;;;;;;;5005404;28;20022;-57
2021/04/09 14:06:14;;;;;;;3.40;2.05;;;;;;;;;;5005084;28;20580;-57
2021/04/09 14:08:40;;;;;;;4.18;2.10;;;;;;;;;;5004273;28;20085;-57
2021/04/09 14:11:05;;;;;;;4.32;2.22;;;;;;;;;;5005744;28;20510;-56
2021/04/09 14:13:31;;;;;;;4.82;2.10;;;;;;;;;;5005041;28;20042;-57
2021/04/09 14:15:57;;;;;;;2.15;1.88;;;;;;;;;;5006484;28;20033;-59
2021/04/09 14:18:23;;;;;;;4.85;2.20;;;;;;;;;;5006661;28;20037;-59
2021/04/09 14:20:49;;;;;;;3.35;2.17;;;;;;;;;;5021219;28;20078;-58
2021/04/09 14:23:14;;;;;;;4.05;1.90;;;;;;;;;;5003758;28;20504;-61
2021/04/09 14:25:40;;;;;;;3.17;1.90;;;;;;;;;;5003963;28;20038;-62
2021/04/09 14:28:05;;;;;;;3.60;1.92;;;;;;;;;;5006405;28;20023;-62
2021/04/09 14:30:31;;;;;;;5.05;2.00;;;;;;;;;;5006237;28;20088;-59
2021/04/09 14:32:56;;;;;;;3.38;1.88;;;;;;;;;;5005364;28;20045;-59
2021/04/09 14:35:22;;;;;;;2.80;1.92;;;;;;;;;;5005675;28;20026;-56
2021/04/09 14:37:47;;;;;;;2.65;1.90;;;;;;;;;;5003431;28;20023;-57
2021/04/09 14:40:15;;;;;;;3.13;2.15;;;;;;;;;;5005332;28;20042;-57
2021/04/09 14:42:41;;;;;;;2.90;1.95;;;;;;;;;;5003881;28;20069;-56
2021/04/09 14:45:12;;;;;;;3.45;2.25;;;;;;;;;;4986586;28;20072;-56
2021/04/09 14:47:38;;;;;;;2.50;1.70;;;;;;;;;;5021571;28;20034;-56
2021/04/09 14:50:07;;;;;;;2.65;2.00;;;;;;;;;;5007785;28;20584;-56